sensor_id;sensor_type;location;lat;lon;timestamp;temperature;humidity
3275;DHT22;1649;53.672;10.064;2024-03-02T00:00:51;8.00;99.90
3275;DHT22;1649;53.672;10.064;2024-03-02T00:03:18;8.00;99.90
3275;DHT22;1649;53.672;10.064;2024-03-02T00:05:43;8.00;99.90
3275;DHT22;1649;53.672;10.064;2024-03-02T00:08:09;8.00;99.90
3275;DHT22;1649;53.672;10.064;2024-03-02T00:10:38;7.90;99.90
3275;DHT22;1649;53.672;10.064;2024-03-02T00:13:08;7.90;99.90
3275;DHT22;1649;53.672;10.064;2024-03-02T00:18:14;7.90;99.90
3275;DHT22;1649;53.672;10.064;2024-03-02T00:20:41;7.90;99.90
3275;DHT22;1649;53.672;10.064;2024-03-02T00:23:08;7.90;99.90
3275;DHT22;1649;53.672;10.064;2024-03-02T00:25:44;7.90;99.90
3275;DHT22;1649;53.672;10.064;2024-03-02T00:28:18;7.90;99.90
3275;DHT22;1649;53.672;10.064;2024-03-02T00:33:44;7.90;99.90
3275;DHT22;1649;53.672;10.064;2024-03-02T00:36:12;7.90;99.90
3275;DHT22;1649;53.672;10.064;2024-03-02T00:38:48;7.90;99.90
3275;DHT22;1649;53.672;10.064;2024-03-02T00:41:25;7.90;99.90
3275;DHT22;1649;53.672;10.064;2024-03-02T00:44:01;7.90;99.90
3275;DHT22;1649;53.672;10.064;2024-03-02T00:46:33;7.90;99.90
3275;DHT22;1649;53.672;10.064;2024-03-02T00:49:00;7.80;99.90
3275;DHT22;1649;53.672;10.064;2024-03-02T00:51:27;7.80;99.90
3275;DHT22;1649;53.672;10.064;2024-03-02T00:53:58;7.80;99.90
3275;DHT22;1649;53.672;10.064;2024-03-02T00:56:24;7.80;99.90
3275;DHT22;1649;53.672;10.064;2024-03-02T00:58:50;7.80;99.90
3275;DHT22;1649;53.672;10.064;2024-03-02T01:01:16;7.70;99.90
3275;DHT22;1649;53.672;10.064;2024-03-02T01:03:42;7.70;99.90
3275;DHT22;1649;53.672;10.064;2024-03-02T01:06:08;7.70;99.90
3275;DHT22;1649;53.672;10.064;2024-03-02T01:08:35;7.70;99.90
3275;DHT22;1649;53.672;10.064;2024-03-02T01:11:01;7.70;99.90
3275;DHT22;1649;53.672;10.064;2024-03-02T01:13:26;7.70;99.90
3275;DHT22;1649;53.672;10.064;2024-03-02T01:15:52;7.70;99.90
3275;DHT22;1649;53.672;10.064;2024-03-02T01:18:18;7.70;99.90
3275;DHT22;1649;53.672;10.064;2024-03-02T01:20:44;7.70;99.90
3275;DHT22;1649;53.672;10.064;2024-03-02T01:23:09;7.70;99.90
3275;DHT22;1649;53.672;10.064;2024-03-02T01:25:35;7.70;99.90
3275;DHT22;1649;53.672;10.064;2024-03-02T01:28:01;7.60;99.90
3275;DHT22;1649;53.672;10.064;2024-03-02T01:30:26;7.70;99.90
3275;DHT22;1649;53.672;10.064;2024-03-02T01:32:52;7.60;99.90
3275;DHT22;1649;53.672;10.064;2024-03-02T01:35:17;7.70;99.90
3275;DHT22;1649;53.672;10.064;2024-03-02T01:37:43;7.70;99.90
3275;DHT22;1649;53.672;10.064;2024-03-02T01:40:09;7.70;99.90
3275;DHT22;1649;53.672;10.064;2024-03-02T01:42:36;7.70;99.90
3275;DHT22;1649;53.672;10.064;2024-03-02T01:45:04;7.70;99.90
3275;DHT22;1649;53.672;10.064;2024-03-02T01:47:29;7.60;99.90
3275;DHT22;1649;53.672;10.064;2024-03-02T01:49:55;7.70;99.90
3275;DHT22;1649;53.672;10.064;2024-03-02T01:52:20;7.70;99.90
3275;DHT22;1649;53.672;10.064;2024-03-02T01:54:46;7.70;99.90
3275;DHT22;1649;53.672;10.064;2024-03-02T01:57:12;7.70;99.90
3275;DHT22;1649;53.672;10.064;2024-03-02T01:59:37;7.70;99.90
3275;DHT22;1649;53.672;10.064;2024-03-02T02:02:03;7.70;99.90
3275;DHT22;1649;53.672;10.064;2024-03-02T02:04:28;7.70;99.90
3275;DHT22;1649;53.672;10.064;2024-03-02T02:06:54;7.80;99.90
3275;DHT22;1649;53.672;10.064;2024-03-02T02:09:20;7.70;99.90
3275;DHT22;1649;53.672;10.064;2024-03-02T02:11:45;7.80;99.90
3275;DHT22;1649;53.672;10.064;2024-03-02T02:14:11;7.80;99.90
3275;DHT22;1649;53.672;10.064;2024-03-02T02:16:36;7.80;99.90
3275;DHT22;1649;53.672;10.064;2024-03-02T02:19:02;7.80;99.90
3275;DHT22;1649;53.672;10.064;2024-03-02T02:21:28;7.80;99.90
3275;DHT22;1649;53.672;10.064;2024-03-02T02:23:54;7.80;99.90
3275;DHT22;1649;53.672;10.064;2024-03-02T02:26:19;7.70;99.90
3275;DHT22;1649;53.672;10.064;2024-03-02T02:28:45;7.70;99.90
3275;DHT22;1649;53.672;10.064;2024-03-02T02:31:15;7.70;99.90
3275;DHT22;1649;53.672;10.064;2024-03-02T02:33:41;7.60;99.90
3275;DHT22;1649;53.672;10.064;2024-03-02T02:36:07;7.70;99.90
3275;DHT22;1649;53.672;10.064;2024-03-02T02:38:40;7.60;99.90
3275;DHT22;1649;53.672;10.064;2024-03-02T02:41:07;7.70;99.90
3275;DHT22;1649;53.672;10.064;2024-03-02T02:43:32;7.70;99.90
3275;DHT22;1649;53.672;10.064;2024-03-02T02:45:57;7.60;99.90
3275;DHT22;1649;53.672;10.064;2024-03-02T02:48:23;7.70;99.90
3275;DHT22;1649;53.672;10.064;2024-03-02T02:50:48;7.70;99.90
3275;DHT22;1649;53.672;10.064;2024-03-02T02:53:14;7.60;99.90
3275;DHT22;1649;53.672;10.064;2024-03-02T02:55:40;7.60;99.90
3275;DHT22;1649;53.672;10.064;2024-03-02T02:58:11;7.60;99.90
3275;DHT22;1649;53.672;10.064;2024-03-02T03:00:37;7.60;99.90
3275;DHT22;1649;53.672;10.064;2024-03-02T03:03:03;7.60;99.90
3275;DHT22;1649;53.672;10.064;2024-03-02T03:05:28;7.60;99.90
3275;DHT22;1649;53.672;10.064;2024-03-02T03:07:54;7.60;99.90
3275;DHT22;1649;53.672;10.064;2024-03-02T03:10:19;7.60;99.90
3275;DHT22;1649;53.672;10.064;2024-03-02T03:12:47;7.60;99.90
3275;DHT22;1649;53.672;10.064;2024-03-02T03:15:13;7.50;99.90
3275;DHT22;1649;53.672;10.064;2024-03-02T03:17:39;7.50;99.90
3275;DHT22;1649;53.672;10.064;2024-03-02T03:20:05;7.50;99.90
3275;DHT22;1649;53.672;10.064;2024-03-02T03:22:35;7.50;99.90
3275;DHT22;1649;53.672;10.064;2024-03-02T03:25:00;7.50;99.90
3275;DHT22;1649;53.672;10.064;2024-03-02T03:27:26;7.50;99.90
3275;DHT22;1649;53.672;10.064;2024-03-02T03:29:52;7.60;99.90
3275;DHT22;1649;53.672;10.064;2024-03-02T03:32:17;7.50;99.90
3275;DHT22;1649;53.672;10.064;2024-03-02T03:34:43;7.50;99.90
3275;DHT22;1649;53.672;10.064;2024-03-02T03:37:08;7.50;99.90
3275;DHT22;1649;53.672;10.064;2024-03-02T03:39:35;7.50;99.90
3275;DHT22;1649;53.672;10.064;2024-03-02T03:42:03;7.50;99.90
3275;DHT22;1649;53.672;10.064;2024-03-02T03:44:29;7.50;99.90
3275;DHT22;1649;53.672;10.064;2024-03-02T03:46:54;7.50;99.90
3275;DHT22;1649;53.672;10.064;2024-03-02T03:49:20;7.40;99.90
3275;DHT22;1649;53.672;10.064;2024-03-02T03:51:46;7.50;99.90
3275;DHT22;1649;53.672;10.064;2024-03-02T03:54:11;7.50;99.90
3275;DHT22;1649;53.672;10.064;2024-03-02T03:56:37;7.50;99.90
3275;DHT22;1649;53.672;10.064;2024-03-02T03:59:03;7.50;99.90
3275;DHT22;1649;53.672;10.064;2024-03-02T04:01:30;7.50;99.90
3275;DHT22;1649;53.672;10.064;2024-03-02T04:03:55;7.50;99.90
3275;DHT22;1649;53.672;10.064;2024-03-02T04:06:21;7.50;99.90
3275;DHT22;1649;53.672;10.064;2024-03-02T04:08:46;7.50;99.90
3275;DHT22;1649;53.672;10.064;2024-03-02T04:11:12;7.50;99.90
3275;DHT22;1649;53.672;10.064;2024-03-02T04:13:37;7.50;99.90
3275;DHT22;1649;53.672;10.064;2024-03-02T04:16:03;7.40;99.90
3275;DHT22;1649;53.672;10.064;2024-03-02T04:18:30;7.50;99.90
3275;DHT22;1649;53.672;10.064;2024-03-02T04:20:56;7.50;99.90
3275;DHT22;1649;53.672;10.064;2024-03-02T04:23:23;7.40;99.90
3275;DHT22;1649;53.672;10.064;2024-03-02T04:25:48;7.40;99.90
3275;DHT22;1649;53.672;10.064;2024-03-02T04:28:14;7.40;99.90
3275;DHT22;1649;53.672;10.064;2024-03-02T04:30:39;7.40;99.90
3275;DHT22;1649;53.672;10.064;2024-03-02T04:33:05;7.40;99.90
3275;DHT22;1649;53.672;10.064;2024-03-02T04:35:32;7.40;99.90
3275;DHT22;1649;53.672;10.064;2024-03-02T04:37:58;7.40;99.90
3275;DHT22;1649;53.672;10.064;2024-03-02T04:40:23;7.40;99.90
3275;DHT22;1649;53.672;10.064;2024-03-02T04:42:49;7.40;99.90
3275;DHT22;1649;53.672;10.064;2024-03-02T04:45:14;7.40;99.90
3275;DHT22;1649;53.672;10.064;2024-03-02T04:47:40;7.50;99.90
3275;DHT22;1649;53.672;10.064;2024-03-02T04:50:06;7.40;99.90
3275;DHT22;1649;53.672;10.064;2024-03-02T04:52:33;7.50;99.90
3275;DHT22;1649;53.672;10.064;2024-03-02T04:54:58;7.40;99.90
3275;DHT22;1649;53.672;10.064;2024-03-02T04:57:45;7.50;99.90
3275;DHT22;1649;53.672;10.064;2024-03-02T05:00:11;7.40;99.90
3275;DHT22;1649;53.672;10.064;2024-03-02T05:02:38;7.40;99.90
3275;DHT22;1649;53.672;10.064;2024-03-02T05:05:04;7.40;99.90
3275;DHT22;1649;53.672;10.064;2024-03-02T05:07:29;7.40;99.90
3275;DHT22;1649;53.672;10.064;2024-03-02T05:09:55;7.40;99.90
3275;DHT22;1649;53.672;10.064;2024-03-02T05:12:20;7.40;99.90
3275;DHT22;1649;53.672;10.064;2024-03-02T05:15:05;7.40;99.90
3275;DHT22;1649;53.672;10.064;2024-03-02T05:17:30;7.40;99.90
3275;DHT22;1649;53.672;10.064;2024-03-02T05:19:56;7.40;99.90
3275;DHT22;1649;53.672;10.064;2024-03-02T05:22:21;7.30;99.90
3275;DHT22;1649;53.672;10.064;2024-03-02T05:24:47;7.30;99.90
3275;DHT22;1649;53.672;10.064;2024-03-02T05:27:12;7.30;99.90
3275;DHT22;1649;53.672;10.064;2024-03-02T05:29:38;7.30;99.90
3275;DHT22;1649;53.672;10.064;2024-03-02T05:32:03;7.30;99.90
3275;DHT22;1649;53.672;10.064;2024-03-02T05:34:29;7.30;99.90
3275;DHT22;1649;53.672;10.064;2024-03-02T05:36:56;7.30;99.90
3275;DHT22;1649;53.672;10.064;2024-03-02T05:39:23;7.30;99.90
3275;DHT22;1649;53.672;10.064;2024-03-02T05:41:48;7.30;99.90
3275;DHT22;1649;53.672;10.064;2024-03-02T05:44:14;7.30;99.90
3275;DHT22;1649;53.672;10.064;2024-03-02T05:46:41;7.30;99.90
3275;DHT22;1649;53.672;10.064;2024-03-02T05:49:06;7.30;99.90
3275;DHT22;1649;53.672;10.064;2024-03-02T05:51:33;7.20;99.90
3275;DHT22;1649;53.672;10.064;2024-03-02T05:53:58;7.20;99.90
3275;DHT22;1649;53.672;10.064;2024-03-02T05:56:24;7.30;99.90
3275;DHT22;1649;53.672;10.064;2024-03-02T05:58:49;7.30;99.90
3275;DHT22;1649;53.672;10.064;2024-03-02T06:01:34;7.20;99.90
3275;DHT22;1649;53.672;10.064;2024-03-02T06:03:59;7.20;99.90
3275;DHT22;1649;53.672;10.064;2024-03-02T06:06:25;7.20;99.90
3275;DHT22;1649;53.672;10.064;2024-03-02T06:08:51;7.10;99.90
3275;DHT22;1649;53.672;10.064;2024-03-02T06:11:17;7.10;99.90
3275;DHT22;1649;53.672;10.064;2024-03-02T06:13:44;7.10;99.90
3275;DHT22;1649;53.672;10.064;2024-03-02T06:16:10;7.10;99.90
3275;DHT22;1649;53.672;10.064;2024-03-02T06:18:35;7.20;99.90
3275;DHT22;1649;53.672;10.064;2024-03-02T06:21:01;7.20;99.90
3275;DHT22;1649;53.672;10.064;2024-03-02T06:23:27;7.20;99.90
3275;DHT22;1649;53.672;10.064;2024-03-02T06:25:52;7.20;99.90
3275;DHT22;1649;53.672;10.064;2024-03-02T06:28:18;7.10;99.90
3275;DHT22;1649;53.672;10.064;2024-03-02T06:30:44;7.10;99.90
3275;DHT22;1649;53.672;10.064;2024-03-02T06:33:10;7.10;99.90
3275;DHT22;1649;53.672;10.064;2024-03-02T06:35:36;7.10;99.90
3275;DHT22;1649;53.672;10.064;2024-03-02T06:38:01;7.20;99.90
3275;DHT22;1649;53.672;10.064;2024-03-02T06:40:27;7.20;99.90
3275;DHT22;1649;53.672;10.064;2024-03-02T06:42:52;7.20;99.90
3275;DHT22;1649;53.672;10.064;2024-03-02T06:45:18;7.20;99.90
3275;DHT22;1649;53.672;10.064;2024-03-02T06:47:43;7.20;99.90
3275;DHT22;1649;53.672;10.064;2024-03-02T06:50:09;7.20;99.90
3275;DHT22;1649;53.672;10.064;2024-03-02T06:52:35;7.20;99.90
3275;DHT22;1649;53.672;10.064;2024-03-02T06:55:01;7.20;99.90
3275;DHT22;1649;53.672;10.064;2024-03-02T06:57:26;7.20;99.90
3275;DHT22;1649;53.672;10.064;2024-03-02T06:59:52;7.30;99.90
3275;DHT22;1649;53.672;10.064;2024-03-02T07:02:20;7.30;99.90
3275;DHT22;1649;53.672;10.064;2024-03-02T07:04:46;7.20;99.90
3275;DHT22;1649;53.672;10.064;2024-03-02T07:07:12;7.30;99.90
3275;DHT22;1649;53.672;10.064;2024-03-02T07:09:38;7.20;99.90
3275;DHT22;1649;53.672;10.064;2024-03-02T07:12:03;7.30;99.90
3275;DHT22;1649;53.672;10.064;2024-03-02T07:14:29;7.40;99.90
3275;DHT22;1649;53.672;10.064;2024-03-02T07:17:13;7.40;99.90
3275;DHT22;1649;53.672;10.064;2024-03-02T07:19:39;7.40;99.90
3275;DHT22;1649;53.672;10.064;2024-03-02T07:22:08;7.50;99.90
3275;DHT22;1649;53.672;10.064;2024-03-02T07:24:42;7.50;99.90
3275;DHT22;1649;53.672;10.064;2024-03-02T07:27:11;7.50;99.90
3275;DHT22;1649;53.672;10.064;2024-03-02T07:29:38;7.60;99.90
3275;DHT22;1649;53.672;10.064;2024-03-02T07:32:04;7.70;99.90
3275;DHT22;1649;53.672;10.064;2024-03-02T07:34:30;7.70;99.90
3275;DHT22;1649;53.672;10.064;2024-03-02T07:36:56;7.80;99.90
3275;DHT22;1649;53.672;10.064;2024-03-02T07:39:21;7.80;99.90
3275;DHT22;1649;53.672;10.064;2024-03-02T07:41:47;7.90;99.90
3275;DHT22;1649;53.672;10.064;2024-03-02T07:44:13;7.90;99.90
3275;DHT22;1649;53.672;10.064;2024-03-02T07:46:41;8.00;99.90
3275;DHT22;1649;53.672;10.064;2024-03-02T07:49:06;8.10;99.90
3275;DHT22;1649;53.672;10.064;2024-03-02T07:51:32;8.20;99.90
3275;DHT22;1649;53.672;10.064;2024-03-02T07:53:57;8.20;99.90
3275;DHT22;1649;53.672;10.064;2024-03-02T07:56:23;8.30;99.90
3275;DHT22;1649;53.672;10.064;2024-03-02T07:58:49;8.20;99.90
3275;DHT22;1649;53.672;10.064;2024-03-02T08:01:14;8.30;99.90
3275;DHT22;1649;53.672;10.064;2024-03-02T08:03:40;8.40;99.90
3275;DHT22;1649;53.672;10.064;2024-03-02T08:06:06;8.40;99.90
3275;DHT22;1649;53.672;10.064;2024-03-02T08:08:32;8.40;99.90
3275;DHT22;1649;53.672;10.064;2024-03-02T08:10:57;8.50;99.90
3275;DHT22;1649;53.672;10.064;2024-03-02T08:13:23;8.50;99.90
3275;DHT22;1649;53.672;10.064;2024-03-02T08:15:48;8.60;99.90
3275;DHT22;1649;53.672;10.064;2024-03-02T08:18:14;8.60;99.90
3275;DHT22;1649;53.672;10.064;2024-03-02T08:20:40;8.80;99.90
3275;DHT22;1649;53.672;10.064;2024-03-02T08:23:06;8.80;99.90
3275;DHT22;1649;53.672;10.064;2024-03-02T08:25:31;8.90;99.90
3275;DHT22;1649;53.672;10.064;2024-03-02T08:27:58;9.10;99.90
3275;DHT22;1649;53.672;10.064;2024-03-02T08:30:23;9.10;99.90
3275;DHT22;1649;53.672;10.064;2024-03-02T08:32:49;9.10;99.90
3275;DHT22;1649;53.672;10.064;2024-03-02T08:35:14;9.10;99.90
3275;DHT22;1649;53.672;10.064;2024-03-02T08:37:41;9.10;99.90
3275;DHT22;1649;53.672;10.064;2024-03-02T08:40:08;9.20;99.90
3275;DHT22;1649;53.672;10.064;2024-03-02T08:42:33;9.10;99.90
3275;DHT22;1649;53.672;10.064;2024-03-02T08:44:59;9.20;99.90
3275;DHT22;1649;53.672;10.064;2024-03-02T08:47:26;9.10;99.90
3275;DHT22;1649;53.672;10.064;2024-03-02T08:49:52;9.20;99.90
3275;DHT22;1649;53.672;10.064;2024-03-02T08:52:17;9.30;99.90
3275;DHT22;1649;53.672;10.064;2024-03-02T08:54:43;9.30;99.90
3275;DHT22;1649;53.672;10.064;2024-03-02T08:57:08;9.40;99.90
3275;DHT22;1649;53.672;10.064;2024-03-02T08:59:34;9.40;99.90
3275;DHT22;1649;53.672;10.064;2024-03-02T09:02:00;9.50;99.90
3275;DHT22;1649;53.672;10.064;2024-03-02T09:04:25;9.60;99.90
3275;DHT22;1649;53.672;10.064;2024-03-02T09:06:51;9.70;99.90
3275;DHT22;1649;53.672;10.064;2024-03-02T09:09:16;9.80;99.90
3275;DHT22;1649;53.672;10.064;2024-03-02T09:11:42;9.90;99.90
3275;DHT22;1649;53.672;10.064;2024-03-02T09:14:07;10.00;99.90
3275;DHT22;1649;53.672;10.064;2024-03-02T09:16:32;10.00;99.90
3275;DHT22;1649;53.672;10.064;2024-03-02T09:18:58;10.10;99.90
3275;DHT22;1649;53.672;10.064;2024-03-02T09:21:23;10.10;99.90
3275;DHT22;1649;53.672;10.064;2024-03-02T09:23:50;10.20;99.90
3275;DHT22;1649;53.672;10.064;2024-03-02T09:26:16;10.40;99.90
3275;DHT22;1649;53.672;10.064;2024-03-02T09:28:45;10.70;99.90
3275;DHT22;1649;53.672;10.064;2024-03-02T09:31:10;11.20;99.90
3275;DHT22;1649;53.672;10.064;2024-03-02T09:33:37;11.80;99.90
3275;DHT22;1649;53.672;10.064;2024-03-02T09:36:04;12.30;99.90
3275;DHT22;1649;53.672;10.064;2024-03-02T09:38:32;12.70;99.90
3275;DHT22;1649;53.672;10.064;2024-03-02T09:41:00;12.50;99.90
3275;DHT22;1649;53.672;10.064;2024-03-02T09:43:26;12.50;99.90
3275;DHT22;1649;53.672;10.064;2024-03-02T09:45:52;12.70;99.90
3275;DHT22;1649;53.672;10.064;2024-03-02T09:48:18;12.90;99.90
3275;DHT22;1649;53.672;10.064;2024-03-02T09:50:46;13.00;99.90
3275;DHT22;1649;53.672;10.064;2024-03-02T09:53:12;12.80;99.90
3275;DHT22;1649;53.672;10.064;2024-03-02T09:55:37;12.70;99.90
3275;DHT22;1649;53.672;10.064;2024-03-02T09:58:04;12.60;99.90
3275;DHT22;1649;53.672;10.064;2024-03-02T10:00:30;12.60;99.90
3275;DHT22;1649;53.672;10.064;2024-03-02T10:02:55;12.40;99.90
3275;DHT22;1649;53.672;10.064;2024-03-02T10:05:25;12.90;99.90
3275;DHT22;1649;53.672;10.064;2024-03-02T10:08:01;13.30;99.90
3275;DHT22;1649;53.672;10.064;2024-03-02T10:10:38;13.20;99.90
3275;DHT22;1649;53.672;10.064;2024-03-02T10:13:12;13.20;99.90
3275;DHT22;1649;53.672;10.064;2024-03-02T10:15:39;13.30;99.90
3275;DHT22;1649;53.672;10.064;2024-03-02T10:18:12;13.50;99.90
3275;DHT22;1649;53.672;10.064;2024-03-02T10:20:39;13.40;99.90
3275;DHT22;1649;53.672;10.064;2024-03-02T10:23:12;13.60;99.90
3275;DHT22;1649;53.672;10.064;2024-03-02T10:25:37;13.40;99.90
3275;DHT22;1649;53.672;10.064;2024-03-02T10:28:03;13.60;99.90
3275;DHT22;1649;53.672;10.064;2024-03-02T10:30:31;13.90;99.90
3275;DHT22;1649;53.672;10.064;2024-03-02T10:32:56;13.90;99.90
3275;DHT22;1649;53.672;10.064;2024-03-02T10:35:22;13.80;99.90
3275;DHT22;1649;53.672;10.064;2024-03-02T10:37:49;13.70;99.90
3275;DHT22;1649;53.672;10.064;2024-03-02T10:40:15;13.80;99.90
3275;DHT22;1649;53.672;10.064;2024-03-02T10:42:41;13.70;99.90
3275;DHT22;1649;53.672;10.064;2024-03-02T10:45:11;13.40;99.90
3275;DHT22;1649;53.672;10.064;2024-03-02T10:47:38;13.60;99.90
3275;DHT22;1649;53.672;10.064;2024-03-02T10:50:04;13.60;99.90
3275;DHT22;1649;53.672;10.064;2024-03-02T10:52:36;13.70;99.90
3275;DHT22;1649;53.672;10.064;2024-03-02T10:55:03;13.70;99.90
3275;DHT22;1649;53.672;10.064;2024-03-02T10:57:50;13.40;99.90
3275;DHT22;1649;53.672;10.064;2024-03-02T11:00:17;13.30;99.90
3275;DHT22;1649;53.672;10.064;2024-03-02T11:03:11;13.20;99.90
3275;DHT22;1649;53.672;10.064;2024-03-02T11:05:41;13.20;99.90
3275;DHT22;1649;53.672;10.064;2024-03-02T11:08:12;13.20;99.90
3275;DHT22;1649;53.672;10.064;2024-03-02T11:10:53;13.30;99.90
3275;DHT22;1649;53.672;10.064;2024-03-02T11:13:29;13.30;99.90
3275;DHT22;1649;53.672;10.064;2024-03-02T11:15:59;13.40;99.90
3275;DHT22;1649;53.672;10.064;2024-03-02T11:18:25;13.40;99.90
3275;DHT22;1649;53.672;10.064;2024-03-02T11:20:51;13.10;99.90
3275;DHT22;1649;53.672;10.064;2024-03-02T11:23:17;13.00;99.90
3275;DHT22;1649;53.672;10.064;2024-03-02T11:25:43;13.20;99.90
3275;DHT22;1649;53.672;10.064;2024-03-02T11:28:08;13.30;99.90
3275;DHT22;1649;53.672;10.064;2024-03-02T11:33:03;13.00;99.90
3275;DHT22;1649;53.672;10.064;2024-03-02T11:35:41;13.20;99.90
3275;DHT22;1649;53.672;10.064;2024-03-02T11:38:13;13.20;99.90
3275;DHT22;1649;53.672;10.064;2024-03-02T11:40:40;13.10;99.90
3275;DHT22;1649;53.672;10.064;2024-03-02T11:43:06;13.20;99.90
3275;DHT22;1649;53.672;10.064;2024-03-02T11:45:33;13.10;99.90
3275;DHT22;1649;53.672;10.064;2024-03-02T11:47:59;13.10;99.90
3275;DHT22;1649;53.672;10.064;2024-03-02T11:50:47;13.20;99.90
3275;DHT22;1649;53.672;10.064;2024-03-02T11:53:12;13.10;99.90
3275;DHT22;1649;53.672;10.064;2024-03-02T11:55:39;13.10;99.90
3275;DHT22;1649;53.672;10.064;2024-03-02T11:58:12;13.10;99.90
3275;DHT22;1649;53.672;10.064;2024-03-02T12:00:38;13.10;99.90
3275;DHT22;1649;53.672;10.064;2024-03-02T12:03:08;13.10;99.90
3275;DHT22;1649;53.672;10.064;2024-03-02T12:05:34;13.00;99.90
3275;DHT22;1649;53.672;10.064;2024-03-02T12:08:05;13.00;99.90
3275;DHT22;1649;53.672;10.064;2024-03-02T12:10:32;12.90;99.90
3275;DHT22;1649;53.672;10.064;2024-03-02T12:13:05;12.90;99.90
3275;DHT22;1649;53.672;10.064;2024-03-02T12:15:37;12.90;99.90
3275;DHT22;1649;53.672;10.064;2024-03-02T12:18:04;13.00;99.90
3275;DHT22;1649;53.672;10.064;2024-03-02T12:20:31;13.10;99.90
3275;DHT22;1649;53.672;10.064;2024-03-02T12:23:02;13.30;99.90
3275;DHT22;1649;53.672;10.064;2024-03-02T12:25:28;13.30;99.90
3275;DHT22;1649;53.672;10.064;2024-03-02T12:27:55;13.20;99.90
3275;DHT22;1649;53.672;10.064;2024-03-02T12:30:22;13.20;99.90
3275;DHT22;1649;53.672;10.064;2024-03-02T12:32:48;13.30;99.90
3275;DHT22;1649;53.672;10.064;2024-03-02T12:35:14;13.30;99.90
3275;DHT22;1649;53.672;10.064;2024-03-02T12:37:48;13.40;99.90
3275;DHT22;1649;53.672;10.064;2024-03-02T12:40:16;13.40;99.90
3275;DHT22;1649;53.672;10.064;2024-03-02T12:42:43;13.30;99.90
3275;DHT22;1649;53.672;10.064;2024-03-02T12:45:10;13.30;99.90
3275;DHT22;1649;53.672;10.064;2024-03-02T12:47:36;13.30;99.90
3275;DHT22;1649;53.672;10.064;2024-03-02T12:50:03;13.30;99.90
3275;DHT22;1649;53.672;10.064;2024-03-02T12:52:29;13.30;99.90
3275;DHT22;1649;53.672;10.064;2024-03-02T12:54:54;13.30;99.90
3275;DHT22;1649;53.672;10.064;2024-03-02T12:57:25;13.30;99.90
3275;DHT22;1649;53.672;10.064;2024-03-02T12:59:52;13.50;99.90
3275;DHT22;1649;53.672;10.064;2024-03-02T13:02:18;13.50;99.90
3275;DHT22;1649;53.672;10.064;2024-03-02T13:04:44;13.40;99.90
3275;DHT22;1649;53.672;10.064;2024-03-02T13:07:13;13.30;99.90
3275;DHT22;1649;53.672;10.064;2024-03-02T13:09:39;13.30;99.90
3275;DHT22;1649;53.672;10.064;2024-03-02T13:12:05;13.30;99.90
3275;DHT22;1649;53.672;10.064;2024-03-02T13:14:33;13.30;99.90
3275;DHT22;1649;53.672;10.064;2024-03-02T13:17:00;13.30;99.90
3275;DHT22;1649;53.672;10.064;2024-03-02T13:19:28;13.20;99.90
3275;DHT22;1649;53.672;10.064;2024-03-02T13:21:56;13.20;99.90
3275;DHT22;1649;53.672;10.064;2024-03-02T13:24:22;13.40;99.90
3275;DHT22;1649;53.672;10.064;2024-03-02T13:26:51;13.40;99.90
3275;DHT22;1649;53.672;10.064;2024-03-02T13:29:21;13.30;99.90
3275;DHT22;1649;53.672;10.064;2024-03-02T13:31:46;13.20;99.90
3275;DHT22;1649;53.672;10.064;2024-03-02T13:34:12;13.20;99.90
3275;DHT22;1649;53.672;10.064;2024-03-02T13:36:37;13.10;99.90
3275;DHT22;1649;53.672;10.064;2024-03-02T13:39:04;13.20;99.90
3275;DHT22;1649;53.672;10.064;2024-03-02T13:41:31;13.10;99.90
3275;DHT22;1649;53.672;10.064;2024-03-02T13:43:57;13.10;99.90
3275;DHT22;1649;53.672;10.064;2024-03-02T13:46:22;13.10;99.90
3275;DHT22;1649;53.672;10.064;2024-03-02T13:48:48;13.10;99.90
3275;DHT22;1649;53.672;10.064;2024-03-02T13:51:13;13.20;99.90
3275;DHT22;1649;53.672;10.064;2024-03-02T13:53:39;13.30;99.90
3275;DHT22;1649;53.672;10.064;2024-03-02T13:56:05;13.20;99.90
3275;DHT22;1649;53.672;10.064;2024-03-02T13:58:31;13.30;99.90
3275;DHT22;1649;53.672;10.064;2024-03-02T14:00:57;13.30;99.90
3275;DHT22;1649;53.672;10.064;2024-03-02T14:03:23;13.40;99.90
3275;DHT22;1649;53.672;10.064;2024-03-02T14:05:48;13.50;99.90
3275;DHT22;1649;53.672;10.064;2024-03-02T14:08:15;13.60;99.90
3275;DHT22;1649;53.672;10.064;2024-03-02T14:10:41;13.70;99.90
3275;DHT22;1649;53.672;10.064;2024-03-02T14:13:08;13.70;99.90
3275;DHT22;1649;53.672;10.064;2024-03-02T14:15:33;13.80;99.90
3275;DHT22;1649;53.672;10.064;2024-03-02T14:17:59;13.80;99.90
3275;DHT22;1649;53.672;10.064;2024-03-02T14:20:24;14.00;99.90
3275;DHT22;1649;53.672;10.064;2024-03-02T14:22:50;14.10;99.90
3275;DHT22;1649;53.672;10.064;2024-03-02T14:25:16;14.20;99.90
3275;DHT22;1649;53.672;10.064;2024-03-02T14:27:42;14.20;99.90
3275;DHT22;1649;53.672;10.064;2024-03-02T14:30:08;14.30;99.90
3275;DHT22;1649;53.672;10.064;2024-03-02T14:32:33;14.40;99.90
3275;DHT22;1649;53.672;10.064;2024-03-02T14:34:59;14.30;99.90
3275;DHT22;1649;53.672;10.064;2024-03-02T14:37:24;14.20;99.90
3275;DHT22;1649;53.672;10.064;2024-03-02T14:39:50;14.30;99.90
3275;DHT22;1649;53.672;10.064;2024-03-02T14:42:16;14.20;99.90
3275;DHT22;1649;53.672;10.064;2024-03-02T14:44:41;14.10;99.90
3275;DHT22;1649;53.672;10.064;2024-03-02T14:47:07;14.10;99.90
3275;DHT22;1649;53.672;10.064;2024-03-02T14:49:33;14.00;99.90
3275;DHT22;1649;53.672;10.064;2024-03-02T14:52:02;14.00;99.90
3275;DHT22;1649;53.672;10.064;2024-03-02T14:54:27;14.00;99.90
3275;DHT22;1649;53.672;10.064;2024-03-02T14:56:53;13.90;99.90
3275;DHT22;1649;53.672;10.064;2024-03-02T14:59:18;13.90;99.90
3275;DHT22;1649;53.672;10.064;2024-03-02T15:01:44;13.90;99.90
3275;DHT22;1649;53.672;10.064;2024-03-02T15:04:10;13.80;99.90
3275;DHT22;1649;53.672;10.064;2024-03-02T15:06:35;13.70;99.90
3275;DHT22;1649;53.672;10.064;2024-03-02T15:09:01;13.60;99.90
3275;DHT22;1649;53.672;10.064;2024-03-02T15:11:27;13.60;99.90
3275;DHT22;1649;53.672;10.064;2024-03-02T15:13:52;13.50;99.90
3275;DHT22;1649;53.672;10.064;2024-03-02T15:16:18;13.40;99.90
3275;DHT22;1649;53.672;10.064;2024-03-02T15:18:43;13.40;99.90
3275;DHT22;1649;53.672;10.064;2024-03-02T15:21:10;13.30;99.90
3275;DHT22;1649;53.672;10.064;2024-03-02T15:23:36;13.20;99.90
3275;DHT22;1649;53.672;10.064;2024-03-02T15:26:01;13.20;99.90
3275;DHT22;1649;53.672;10.064;2024-03-02T15:28:27;13.20;99.90
3275;DHT22;1649;53.672;10.064;2024-03-02T15:30:53;13.10;99.90
3275;DHT22;1649;53.672;10.064;2024-03-02T15:33:18;13.00;99.90
3275;DHT22;1649;53.672;10.064;2024-03-02T15:35:44;12.90;99.90
3275;DHT22;1649;53.672;10.064;2024-03-02T15:38:09;12.90;99.90
3275;DHT22;1649;53.672;10.064;2024-03-02T15:40:37;12.80;99.90
3275;DHT22;1649;53.672;10.064;2024-03-02T15:43:03;12.70;99.90
3275;DHT22;1649;53.672;10.064;2024-03-02T15:45:28;12.70;99.90
3275;DHT22;1649;53.672;10.064;2024-03-02T15:47:59;12.60;99.90
3275;DHT22;1649;53.672;10.064;2024-03-02T15:50:24;12.50;99.90
3275;DHT22;1649;53.672;10.064;2024-03-02T15:52:50;12.50;99.90
3275;DHT22;1649;53.672;10.064;2024-03-02T15:55:16;12.40;99.90
3275;DHT22;1649;53.672;10.064;2024-03-02T15:57:41;12.40;99.90
3275;DHT22;1649;53.672;10.064;2024-03-02T16:00:07;12.30;99.90